createdAt,value
2019-05-26T00:01:31.760Z,4.80
2019-05-26T00:04:03.751Z,4.67
2019-05-26T00:06:32.506Z,4.63
2019-05-26T00:09:01.287Z,5.13
2019-05-26T00:11:30.091Z,4.90
2019-05-26T00:13:58.940Z,5.10
2019-05-26T00:16:27.721Z,5.10
2019-05-26T00:18:56.509Z,4.57
2019-05-26T00:21:25.297Z,4.90
2019-05-26T00:23:56.137Z,4.90
2019-05-26T00:26:24.566Z,4.50
2019-05-26T00:28:53.335Z,4.93
2019-05-26T00:31:22.130Z,5.00
2019-05-26T00:33:50.959Z,4.90
2019-05-26T00:36:19.781Z,5.20
2019-05-26T00:38:48.538Z,6.20
2019-05-26T00:41:17.286Z,4.87
2019-05-26T00:43:46.028Z,4.60
2019-05-26T00:46:14.781Z,4.97
2019-05-26T00:48:43.615Z,4.87
2019-05-26T00:51:12.359Z,4.63
2019-05-26T00:53:41.132Z,5.03
2019-05-26T00:56:09.941Z,4.70
2019-05-26T00:58:38.778Z,4.80
2019-05-26T01:01:07.537Z,4.80
2019-05-26T01:03:39.362Z,5.00
2019-05-26T01:06:08.194Z,4.60
2019-05-26T01:08:37.026Z,4.47
2019-05-26T01:11:05.816Z,4.93
2019-05-26T01:13:34.552Z,4.60
2019-05-26T01:16:03.330Z,5.00
2019-05-26T01:18:32.091Z,4.90
2019-05-26T01:21:00.872Z,4.30
2019-05-26T01:23:29.670Z,4.60
2019-05-26T01:25:58.418Z,4.73
2019-05-26T01:28:27.163Z,5.77
2019-05-26T01:30:55.940Z,6.97
2019-05-26T01:33:24.779Z,7.70
2019-05-26T01:35:54.268Z,7.30
2019-05-26T01:38:24.495Z,6.90
2019-05-26T01:40:53.533Z,6.53
2019-05-26T01:43:22.279Z,6.73
2019-05-26T01:45:51.026Z,7.20
2019-05-26T01:48:19.826Z,6.60
2019-05-26T01:50:48.570Z,6.50
2019-05-26T01:53:27.014Z,6.70
2019-05-26T01:55:55.780Z,7.30
2019-05-26T01:58:25.054Z,6.23
2019-05-26T02:00:53.856Z,5.73
2019-05-26T02:03:22.632Z,5.97
2019-05-26T02:05:51.468Z,5.57
2019-05-26T02:08:20.255Z,5.67
2019-05-26T02:10:49.179Z,5.70
2019-05-26T02:13:17.992Z,5.73
2019-05-26T02:15:46.774Z,5.43
2019-05-26T02:18:15.624Z,5.30
2019-05-26T02:20:44.412Z,5.40
2019-05-26T02:23:13.350Z,5.67
2019-05-26T02:25:42.128Z,6.83
2019-05-26T02:28:10.883Z,6.37
2019-05-26T02:30:39.675Z,6.27
2019-05-26T02:33:08.485Z,6.40
2019-05-26T02:35:37.307Z,6.70
2019-05-26T02:38:06.111Z,6.77
2019-05-26T02:40:34.860Z,6.60
2019-05-26T02:43:03.636Z,6.50
2019-05-26T02:45:32.471Z,6.27
2019-05-26T02:48:01.248Z,7.10
2019-05-26T02:50:30.185Z,6.23
2019-05-26T02:52:58.938Z,6.93
2019-05-26T02:55:27.698Z,7.00
2019-05-26T02:57:56.451Z,7.00
2019-05-26T03:00:47.345Z,7.10
2019-05-26T03:03:16.684Z,6.30
2019-05-26T03:05:46.304Z,6.57
2019-05-26T03:08:16.040Z,7.63
2019-05-26T03:10:45.244Z,7.80
2019-05-26T03:13:15.029Z,7.70
2019-05-26T03:15:45.058Z,7.33
2019-05-26T03:18:13.898Z,6.80
2019-05-26T03:20:42.733Z,6.70
2019-05-26T03:23:11.572Z,6.53
2019-05-26T03:25:40.318Z,6.23
2019-05-26T03:28:09.134Z,5.73
2019-05-26T03:30:38.009Z,5.70
2019-05-26T03:33:06.973Z,5.57
2019-05-26T03:35:35.890Z,5.50
2019-05-26T03:38:04.690Z,6.80
2019-05-26T03:40:34.256Z,6.53
2019-05-26T03:43:03.055Z,7.00
2019-05-26T03:46:05.824Z,6.43
2019-05-26T03:48:34.609Z,6.37
2019-05-26T03:51:03.365Z,6.23
2019-05-26T03:53:32.136Z,6.00
2019-05-26T03:56:00.875Z,5.87
2019-05-26T03:58:29.628Z,5.80
2019-05-26T04:00:58.433Z,5.50
2019-05-26T04:03:27.258Z,5.70
2019-05-26T04:05:56.014Z,5.03
2019-05-26T04:08:24.762Z,6.10
2019-05-26T04:10:53.696Z,6.10
2019-05-26T04:13:22.440Z,6.47
2019-05-26T04:15:51.205Z,5.97
2019-05-26T04:18:19.978Z,5.80
2019-05-26T04:20:48.733Z,5.83
2019-05-26T04:23:17.565Z,5.50
2019-05-26T04:25:46.341Z,6.33
2019-05-26T04:28:34.343Z,5.57
2019-05-26T04:31:03.191Z,5.33
2019-05-26T04:33:31.916Z,5.53
2019-05-26T04:36:00.765Z,5.17
2019-05-26T04:38:29.509Z,5.23
2019-05-26T04:40:58.320Z,5.77
2019-05-26T04:43:27.089Z,5.57
2019-05-26T04:45:55.944Z,5.27
2019-05-26T04:48:24.977Z,6.37
2019-05-26T04:50:53.708Z,5.30
2019-05-26T04:53:22.462Z,5.00
2019-05-26T04:55:51.227Z,4.73
2019-05-26T04:58:19.987Z,4.83
2019-05-26T05:00:48.730Z,4.90
2019-05-26T05:03:17.522Z,5.13
2019-05-26T05:05:46.273Z,5.10
2019-05-26T05:08:15.097Z,5.23
2019-05-26T05:10:43.911Z,4.70
2019-05-26T05:13:12.691Z,4.53
2019-05-26T05:15:41.427Z,4.80
2019-05-26T05:18:10.254Z,5.77
2019-05-26T05:20:39.359Z,5.20
2019-05-26T05:23:08.177Z,5.37
2019-05-26T05:25:36.965Z,5.13
2019-05-26T05:28:05.717Z,5.57
2019-05-26T05:30:34.562Z,5.40
2019-05-26T05:33:03.281Z,4.90
2019-05-26T05:35:32.050Z,5.47
2019-05-26T05:38:00.810Z,5.17
2019-05-26T05:40:29.582Z,5.23
2019-05-26T05:42:58.336Z,5.40
2019-05-26T05:45:27.195Z,4.80
2019-05-26T05:47:55.957Z,4.73
2019-05-26T05:50:24.719Z,4.60
2019-05-26T05:52:53.567Z,4.73
2019-05-26T05:55:22.389Z,4.70
2019-05-26T05:57:51.261Z,4.77
2019-05-26T06:00:20.022Z,5.30
2019-05-26T06:02:48.830Z,4.13
2019-05-26T06:05:17.602Z,4.40
2019-05-26T06:07:46.377Z,4.80
2019-05-26T06:10:15.365Z,5.37
2019-05-26T06:12:44.145Z,5.47
2019-05-26T06:15:14.680Z,5.27
2019-05-26T06:17:43.505Z,4.90
2019-05-26T06:20:12.280Z,4.90
2019-05-26T06:22:41.065Z,4.67
2019-05-26T06:25:09.827Z,4.80
2019-05-26T06:27:38.725Z,4.50
2019-05-26T06:30:07.588Z,4.50
2019-05-26T06:32:36.373Z,4.30
2019-05-26T06:35:05.363Z,4.57
2019-05-26T06:37:34.209Z,4.40
2019-05-26T06:40:03.073Z,4.10
2019-05-26T06:42:31.841Z,4.33
2019-05-26T06:45:00.685Z,4.37
2019-05-26T06:47:29.465Z,4.43
2019-05-26T06:49:58.219Z,4.97
2019-05-26T06:52:27.005Z,5.23
2019-05-26T06:54:55.766Z,4.77
2019-05-26T06:57:24.535Z,4.53
2019-05-26T06:59:53.356Z,4.93
2019-05-26T07:02:22.078Z,4.97
2019-05-26T07:04:50.935Z,4.93
2019-05-26T07:07:19.851Z,4.67
2019-05-26T07:09:48.580Z,5.30
2019-05-26T07:12:17.337Z,5.60
2019-05-26T07:14:46.095Z,4.57
2019-05-26T07:17:14.918Z,4.80
2019-05-26T07:19:43.775Z,5.27
2019-05-26T07:22:12.569Z,5.73
2019-05-26T07:24:41.387Z,6.33
2019-05-26T07:27:10.231Z,6.80
2019-05-26T07:29:38.997Z,6.67
2019-05-26T07:32:07.781Z,6.90
2019-05-26T07:34:36.617Z,7.47
2019-05-26T07:37:05.368Z,7.63
2019-05-26T07:39:34.211Z,7.00
2019-05-26T07:42:10.180Z,8.70
2019-05-26T07:44:33.505Z,8.57
2019-05-26T07:47:02.356Z,8.07
2019-05-26T07:49:31.109Z,7.63
2019-05-26T07:51:59.881Z,7.23
2019-05-26T07:54:28.692Z,8.17
2019-05-26T07:56:57.446Z,8.47
2019-05-26T07:59:26.200Z,7.30
2019-05-26T08:01:55.010Z,8.37
2019-05-26T08:04:23.761Z,7.47
2019-05-26T08:06:52.626Z,7.27
2019-05-26T08:09:21.373Z,6.77
2019-05-26T08:11:50.248Z,7.43
2019-05-26T08:14:19.081Z,6.83
2019-05-26T08:16:47.860Z,6.43
2019-05-26T08:19:16.634Z,6.90
2019-05-26T08:21:45.488Z,6.43
2019-05-26T08:24:14.321Z,5.87
2019-05-26T08:26:43.106Z,5.80
2019-05-26T08:29:11.866Z,5.60
2019-05-26T08:31:40.639Z,5.33
2019-05-26T08:34:09.421Z,5.63
2019-05-26T08:36:38.250Z,5.57
2019-05-26T08:39:08.348Z,5.90
2019-05-26T08:41:37.193Z,5.17
2019-05-26T08:44:05.973Z,5.50
2019-05-26T08:46:34.726Z,5.60
2019-05-26T08:49:03.503Z,5.30
2019-05-26T08:51:32.260Z,5.97
2019-05-26T08:54:01.054Z,5.27
2019-05-26T08:56:29.896Z,5.63
2019-05-26T08:58:58.687Z,5.23
2019-05-26T09:01:27.464Z,5.53
2019-05-26T09:03:56.314Z,5.00
2019-05-26T09:06:25.226Z,5.13
2019-05-26T09:08:54.174Z,5.33
2019-05-26T09:11:23.640Z,5.37
2019-05-26T09:13:52.736Z,5.87
2019-05-26T09:16:21.511Z,5.97
2019-05-26T09:18:50.349Z,5.50
2019-05-26T09:21:19.151Z,5.87
2019-05-26T09:23:47.989Z,5.90
2019-05-26T09:26:16.767Z,5.43
2019-05-26T09:28:45.559Z,5.60
2019-05-26T09:31:14.309Z,5.80
2019-05-26T09:33:43.099Z,5.13
2019-05-26T09:36:11.877Z,4.83
2019-05-26T09:38:40.635Z,5.10
2019-05-26T09:41:09.412Z,6.00
2019-05-26T09:43:38.266Z,5.70
2019-05-26T09:46:07.019Z,5.70
2019-05-26T09:48:35.802Z,5.57
2019-05-26T09:51:04.576Z,5.23
2019-05-26T09:53:33.311Z,5.27
2019-05-26T09:56:02.164Z,5.17
2019-05-26T09:58:31.003Z,5.30
2019-05-26T10:00:59.874Z,5.33
2019-05-26T10:03:28.714Z,5.27
2019-05-26T10:05:57.473Z,5.13
2019-05-26T10:08:26.252Z,5.67
2019-05-26T10:10:55.052Z,5.70
2019-05-26T10:13:31.832Z,5.37
2019-05-26T10:15:54.401Z,5.90
2019-05-26T10:18:23.421Z,5.77
2019-05-26T10:20:52.279Z,5.30
2019-05-26T10:23:21.214Z,5.20
2019-05-26T10:25:49.996Z,5.70
2019-05-26T10:28:18.780Z,5.10
2019-05-26T10:30:47.515Z,5.57
2019-05-26T10:33:16.287Z,4.97
2019-05-26T10:35:45.026Z,5.73
2019-05-26T10:38:13.803Z,5.40
2019-05-26T10:40:42.570Z,5.47
2019-05-26T10:43:11.343Z,5.03
2019-05-26T10:45:40.088Z,4.60
2019-05-26T10:48:08.852Z,4.57
2019-05-26T10:50:37.606Z,4.90
2019-05-26T10:53:06.430Z,5.30
2019-05-26T10:55:35.374Z,4.97
2019-05-26T10:58:04.144Z,5.00
2019-05-26T11:00:33.360Z,4.70
2019-05-26T11:03:02.148Z,4.60
2019-05-26T11:05:30.948Z,4.70
2019-05-26T11:07:59.700Z,4.80
2019-05-26T11:10:28.458Z,4.63
2019-05-26T11:12:57.208Z,4.27
2019-05-26T11:15:25.968Z,4.57
2019-05-26T11:17:54.812Z,4.60
2019-05-26T11:20:23.584Z,4.40
2019-05-26T11:22:52.418Z,4.40
2019-05-26T11:25:21.260Z,4.50
2019-05-26T11:27:50.159Z,4.50
2019-05-26T11:30:20.542Z,4.40
2019-05-26T11:32:49.297Z,3.83
2019-05-26T11:35:19.689Z,3.90
2019-05-26T11:37:48.468Z,3.73
2019-05-26T11:40:17.200Z,4.00
2019-05-26T11:42:45.979Z,4.00
2019-05-26T11:45:14.713Z,3.87
2019-05-26T11:47:43.621Z,3.77
2019-05-26T11:50:12.494Z,3.90
2019-05-26T11:52:41.303Z,3.60
2019-05-26T11:55:10.055Z,3.67
2019-05-26T11:57:38.802Z,3.73
2019-05-26T12:00:08.069Z,3.47
2019-05-26T12:02:37.480Z,3.47
2019-05-26T12:05:06.242Z,3.00
2019-05-26T12:07:34.999Z,3.27
2019-05-26T12:10:04.006Z,3.20
2019-05-26T12:12:32.760Z,3.07
2019-05-26T12:15:01.632Z,3.53
2019-05-26T12:17:30.387Z,3.30
2019-05-26T12:19:59.123Z,3.30
2019-05-26T12:22:27.858Z,3.10
2019-05-26T12:24:56.710Z,2.80
2019-05-26T12:27:25.550Z,3.20
2019-05-26T12:29:54.311Z,2.80
2019-05-26T12:32:23.067Z,2.87
2019-05-26T12:34:51.833Z,3.10
2019-05-26T12:37:20.621Z,2.60
2019-05-26T12:39:49.337Z,2.90
2019-05-26T12:42:18.081Z,2.80
2019-05-26T12:44:49.929Z,2.47
2019-05-26T12:47:17.394Z,2.30
2019-05-26T12:49:46.144Z,2.63
2019-05-26T12:52:14.919Z,2.90
2019-05-26T12:54:43.654Z,2.67
2019-05-26T12:57:12.401Z,2.50
2019-05-26T12:59:41.148Z,2.50
2019-05-26T13:02:10.005Z,2.33
2019-05-26T13:04:38.775Z,2.30
2019-05-26T13:07:07.532Z,2.10
2019-05-26T13:09:36.370Z,2.23
2019-05-26T13:12:05.119Z,2.03
2019-05-26T13:14:33.939Z,2.30
2019-05-26T13:17:02.764Z,2.20
2019-05-26T13:19:31.533Z,2.23
2019-05-26T13:22:00.298Z,2.30
2019-05-26T13:24:29.040Z,2.30
2019-05-26T13:26:57.809Z,2.23
2019-05-26T13:29:26.578Z,1.90
2019-05-26T13:31:55.359Z,2.00
2019-05-26T13:34:24.173Z,2.10
2019-05-26T13:36:53.000Z,1.87
2019-05-26T13:39:21.745Z,1.90
2019-05-26T13:41:50.495Z,2.00
2019-05-26T13:44:19.225Z,1.73
2019-05-26T13:46:48.159Z,1.80
2019-05-26T13:49:16.941Z,1.70
2019-05-26T13:51:45.757Z,1.87
2019-05-26T13:54:14.501Z,1.80
2019-05-26T13:56:43.265Z,1.57
2019-05-26T13:59:12.014Z,1.80
2019-05-26T14:01:40.780Z,1.50
2019-05-26T14:04:09.619Z,1.60
2019-05-26T14:06:38.448Z,1.90
2019-05-26T14:09:09.628Z,1.77
2019-05-26T14:11:38.401Z,1.60
2019-05-26T14:14:07.161Z,1.80
2019-05-26T14:16:35.919Z,1.73
2019-05-26T14:19:04.744Z,1.60
2019-05-26T14:21:33.521Z,1.77
2019-05-26T14:24:02.401Z,1.60
2019-05-26T14:26:31.279Z,1.63
2019-05-26T14:29:00.105Z,1.87
2019-05-26T14:31:28.911Z,1.70
2019-05-26T14:33:57.666Z,1.70
2019-05-26T14:36:26.429Z,1.50
2019-05-26T14:38:55.252Z,1.60
2019-05-26T14:41:24.005Z,1.63
2019-05-26T14:43:52.758Z,1.70
2019-05-26T14:46:23.679Z,1.63
2019-05-26T14:48:52.456Z,1.53
2019-05-26T14:51:21.192Z,1.60
2019-05-26T14:53:50.053Z,1.93
2019-05-26T14:56:18.800Z,1.70
2019-05-26T14:58:47.570Z,1.70
2019-05-26T15:01:16.407Z,1.70
2019-05-26T15:03:45.147Z,1.67
2019-05-26T15:06:13.927Z,1.40
2019-05-26T15:08:42.693Z,1.50
2019-05-26T15:11:11.430Z,1.50
2019-05-26T15:13:42.674Z,1.80
2019-05-26T15:16:11.530Z,1.50
2019-05-26T15:18:40.309Z,1.53
2019-05-26T15:21:09.098Z,1.63
2019-05-26T15:23:37.919Z,1.60
2019-05-26T15:26:06.830Z,1.50
2019-05-26T15:28:35.773Z,1.47
2019-05-26T15:31:04.679Z,1.37
2019-05-26T15:33:33.535Z,1.40
2019-05-26T15:36:02.333Z,1.33
2019-05-26T15:38:42.531Z,1.40
2019-05-26T15:41:01.661Z,1.57
2019-05-26T15:43:30.530Z,1.40
2019-05-26T15:45:59.289Z,1.67
2019-05-26T15:48:28.056Z,1.40
2019-05-26T15:50:56.803Z,1.73
2019-05-26T15:53:25.571Z,1.40
2019-05-26T15:55:54.355Z,1.40
2019-05-26T15:58:23.248Z,1.63
2019-05-26T16:00:52.098Z,1.40
2019-05-26T16:03:20.960Z,1.33
2019-05-26T16:05:49.733Z,1.50
2019-05-26T16:08:18.480Z,1.30
2019-05-26T16:10:47.302Z,1.30
2019-05-26T16:13:16.327Z,1.50
2019-05-26T16:15:45.206Z,1.40
2019-05-26T16:18:14.055Z,1.43
2019-05-26T16:20:42.821Z,1.30
2019-05-26T16:23:11.917Z,1.30
2019-05-26T16:25:40.708Z,1.40
2019-05-26T16:28:09.575Z,1.50
2019-05-26T16:30:38.431Z,1.40
2019-05-26T16:33:07.268Z,1.40
2019-05-26T16:35:36.218Z,1.40
2019-05-26T16:38:05.043Z,1.40
2019-05-26T16:40:33.905Z,1.40
2019-05-26T16:43:02.983Z,1.40
2019-05-26T16:45:31.731Z,1.23
2019-05-26T16:48:00.584Z,1.40
2019-05-26T16:50:29.398Z,1.50
2019-05-26T16:52:58.284Z,1.40
2019-05-26T16:55:27.129Z,1.27
2019-05-26T16:57:55.996Z,1.50
2019-05-26T17:00:24.756Z,1.30
2019-05-26T17:02:53.603Z,1.27
2019-05-26T17:05:22.347Z,1.40
2019-05-26T17:07:51.240Z,1.47
2019-05-26T17:10:20.028Z,1.40
2019-05-26T17:12:48.828Z,1.23
2019-05-26T17:15:17.687Z,1.40
2019-05-26T17:17:46.511Z,1.30
2019-05-26T17:20:16.316Z,1.20
2019-05-26T17:22:45.078Z,1.30
2019-05-26T17:25:13.926Z,1.40
2019-05-26T17:27:42.773Z,1.40
2019-05-26T17:30:11.653Z,1.40
2019-05-26T17:32:40.485Z,1.40
2019-05-26T17:35:09.361Z,1.33
2019-05-26T17:37:38.205Z,1.30
2019-05-26T17:40:07.062Z,1.50
2019-05-26T17:42:35.817Z,1.40
2019-05-26T17:45:04.836Z,1.40
2019-05-26T17:47:33.685Z,1.60
2019-05-26T17:50:02.481Z,1.60
2019-05-26T17:52:31.326Z,1.60
2019-05-26T17:55:00.199Z,1.80
2019-05-26T17:57:28.987Z,2.43
2019-05-26T17:59:57.832Z,2.30
2019-05-26T18:02:26.777Z,2.30
2019-05-26T18:04:55.608Z,2.43
2019-05-26T18:07:24.492Z,2.10
2019-05-26T18:09:53.243Z,2.00
2019-05-26T18:12:22.001Z,2.53
2019-05-26T18:14:50.754Z,2.30
2019-05-26T18:17:19.524Z,2.40
2019-05-26T18:19:48.308Z,2.47
2019-05-26T18:22:17.061Z,2.30
2019-05-26T18:24:54.968Z,2.13
2019-05-26T18:27:16.400Z,2.60
2019-05-26T18:29:45.229Z,2.30
2019-05-26T18:32:14.255Z,2.40
2019-05-26T18:34:43.078Z,2.30
2019-05-26T18:37:11.848Z,2.50
2019-05-26T18:39:40.596Z,2.10
2019-05-26T18:42:09.507Z,2.27
2019-05-26T18:44:38.361Z,2.40
2019-05-26T18:47:07.105Z,2.20
2019-05-26T18:49:35.866Z,2.03
2019-05-26T18:52:04.739Z,2.50
2019-05-26T18:54:33.502Z,2.33
2019-05-26T18:57:02.255Z,2.30
2019-05-26T18:59:31.061Z,2.37
2019-05-26T19:01:59.834Z,2.10
2019-05-26T19:04:28.668Z,2.00
2019-05-26T19:06:57.487Z,1.93
2019-05-26T19:09:26.294Z,1.80
2019-05-26T19:11:59.020Z,1.80
2019-05-26T19:14:28.554Z,2.20
2019-05-26T19:16:57.319Z,1.93
2019-05-26T19:19:26.080Z,2.10
2019-05-26T19:21:54.846Z,1.80
2019-05-26T19:24:23.701Z,1.63
2019-05-26T19:26:52.568Z,2.33
2019-05-26T19:29:21.421Z,2.20
2019-05-26T19:31:50.274Z,2.20
2019-05-26T19:34:19.168Z,1.90
2019-05-26T19:36:48.057Z,2.57
2019-05-26T19:39:16.822Z,1.90
2019-05-26T19:41:45.668Z,1.93
2019-05-26T19:44:14.459Z,1.80
2019-05-26T19:46:43.218Z,2.03
2019-05-26T19:49:12.087Z,1.60
2019-05-26T19:51:40.865Z,1.73
2019-05-26T19:54:09.724Z,2.13
2019-05-26T19:56:38.586Z,2.13
2019-05-26T19:59:07.436Z,2.00
2019-05-26T20:01:36.316Z,1.70
2019-05-26T20:04:06.658Z,1.60
2019-05-26T20:06:35.485Z,1.70
2019-05-26T20:09:06.226Z,1.87
2019-05-26T20:11:35.030Z,1.70
2019-05-26T20:14:03.989Z,1.83
2019-05-26T20:16:33.016Z,1.70
2019-05-26T20:19:01.863Z,1.60
2019-05-26T20:21:30.816Z,2.13
2019-05-26T20:24:07.209Z,1.67
2019-05-26T20:26:41.206Z,1.93
2019-05-26T20:29:11.796Z,1.70
2019-05-26T20:31:47.312Z,1.47
2019-05-26T20:34:11.644Z,1.97
2019-05-26T20:36:40.554Z,1.97
2019-05-26T20:39:10.681Z,1.60
2019-05-26T20:41:43.570Z,1.67
2019-05-26T20:44:13.183Z,2.33
2019-05-26T20:46:42.236Z,1.60
2019-05-26T20:49:17.071Z,1.53
2019-05-26T20:51:46.286Z,1.40
2019-05-26T20:54:15.190Z,1.73
2019-05-26T20:56:44.245Z,1.50
2019-05-26T20:59:13.467Z,1.37
2019-05-26T21:01:43.324Z,1.60
2019-05-26T21:04:12.340Z,1.60
2019-05-26T21:06:41.242Z,1.53
2019-05-26T21:09:11.393Z,1.57
2019-05-26T21:11:40.595Z,1.50
2019-05-26T21:14:09.442Z,1.50
2019-05-26T21:16:38.297Z,1.40
2019-05-26T21:19:07.073Z,1.50
2019-05-26T21:21:35.861Z,1.40
2019-05-26T21:24:04.625Z,1.60
2019-05-26T21:26:33.581Z,1.70
2019-05-26T21:29:02.332Z,1.50
2019-05-26T21:31:31.168Z,1.57
2019-05-26T21:34:00.001Z,1.40
2019-05-26T21:36:28.881Z,1.30
2019-05-26T21:38:57.632Z,1.33
2019-05-26T21:41:26.420Z,1.30
2019-05-26T21:43:55.176Z,1.23
2019-05-26T21:46:23.969Z,1.30
2019-05-26T21:48:52.723Z,1.40
2019-05-26T21:51:21.498Z,1.30
2019-05-26T21:53:50.367Z,1.60
2019-05-26T21:56:19.164Z,1.30
2019-05-26T21:58:47.936Z,1.30
2019-05-26T22:01:16.918Z,1.27
2019-05-26T22:03:45.677Z,1.37
2019-05-26T22:06:14.523Z,1.33
2019-05-26T22:08:43.364Z,1.20
2019-05-26T22:11:12.127Z,1.10
2019-05-26T22:13:40.956Z,1.57
2019-05-26T22:16:12.501Z,1.17
2019-05-26T22:18:41.362Z,1.30
2019-05-26T22:21:10.138Z,1.30
2019-05-26T22:23:38.883Z,1.50
2019-05-26T22:26:07.684Z,1.30
2019-05-26T22:28:36.526Z,1.40
2019-05-26T22:31:05.361Z,1.10
2019-05-26T22:33:34.131Z,1.20
2019-05-26T22:36:02.911Z,1.10
2019-05-26T22:38:31.926Z,1.30
2019-05-26T22:41:00.785Z,1.47
2019-05-26T22:43:29.548Z,1.27
2019-05-26T22:45:58.446Z,1.20
2019-05-26T22:48:27.209Z,1.30
2019-05-26T22:50:55.992Z,1.43
2019-05-26T22:53:24.769Z,1.17
2019-05-26T22:55:53.775Z,1.30
2019-05-26T22:58:22.606Z,1.27
2019-05-26T23:00:51.435Z,1.20
2019-05-26T23:03:20.267Z,1.13
2019-05-26T23:05:49.046Z,1.30
2019-05-26T23:08:17.889Z,1.10
2019-05-26T23:10:46.690Z,1.10
2019-05-26T23:13:15.589Z,1.10
2019-05-26T23:15:44.355Z,1.27
2019-05-26T23:18:13.153Z,1.20
2019-05-26T23:20:41.987Z,1.17
2019-05-26T23:23:10.768Z,1.20
2019-05-26T23:25:39.609Z,1.00
2019-05-26T23:28:08.451Z,1.20
2019-05-26T23:30:37.261Z,1.20
2019-05-26T23:33:06.102Z,1.10
2019-05-26T23:35:34.856Z,1.13
2019-05-26T23:38:03.616Z,1.00
2019-05-26T23:40:32.343Z,1.00
2019-05-26T23:43:01.102Z,1.30
2019-05-26T23:45:29.931Z,1.00
2019-05-26T23:47:58.853Z,1.13
2019-05-26T23:50:27.658Z,1.03
2019-05-26T23:52:56.397Z,1.17
2019-05-26T23:55:25.143Z,1.10
2019-05-26T23:57:53.931Z,1.20
